createdAt,value
2017-05-03T00:00:56.370Z,100452
2017-05-03T00:01:55.852Z,100451
2017-05-03T00:02:57.134Z,100444
2017-05-03T00:03:55.933Z,100454
2017-05-03T00:04:56.527Z,100452
2017-05-03T00:05:56.028Z,100453
2017-05-03T00:06:56.662Z,100454
2017-05-03T00:07:56.660Z,100451
2017-05-03T00:08:56.725Z,100450
2017-05-03T00:09:57.519Z,100452
2017-05-03T00:10:56.779Z,100449
2017-05-03T00:11:56.380Z,100445
2017-05-03T00:12:56.444Z,100447
2017-05-03T00:13:56.989Z,100447
2017-05-03T00:14:58.393Z,100446
2017-05-03T00:15:57.105Z,100448
2017-05-03T00:16:57.114Z,100446
2017-05-03T00:17:56.758Z,100439
2017-05-03T00:18:57.920Z,100438
2017-05-03T00:19:57.892Z,100449
2017-05-03T00:20:56.932Z,100445
2017-05-03T00:21:57.801Z,100441
2017-05-03T00:22:57.049Z,100452
2017-05-03T00:23:57.595Z,100455
2017-05-03T00:24:57.714Z,100450
2017-05-03T00:25:57.285Z,100441
2017-05-03T00:26:57.829Z,100452
2017-05-03T00:27:58.110Z,100454
2017-05-03T00:28:57.974Z,100452
2017-05-03T00:29:58.843Z,100452
2017-05-03T00:30:57.378Z,100457
2017-05-03T00:31:57.450Z,100455
2017-05-03T00:32:58.046Z,100450
2017-05-03T00:33:57.795Z,100458
2017-05-03T00:34:57.587Z,100458
2017-05-03T00:35:58.086Z,100458
2017-05-03T00:36:58.118Z,100457
2017-05-03T00:37:57.632Z,100458
2017-05-03T00:38:57.651Z,100460
2017-05-03T00:39:58.023Z,100458
2017-05-03T00:40:57.805Z,100465
2017-05-03T00:41:57.835Z,100458
2017-05-03T00:42:57.956Z,100466
2017-05-03T00:43:58.717Z,100456
2017-05-03T00:44:59.361Z,100462
2017-05-03T00:45:59.631Z,100463
2017-05-03T00:46:58.998Z,100463
2017-05-03T00:47:58.856Z,100462
2017-05-03T00:48:58.452Z,100462
2017-05-03T00:49:58.503Z,100459
2017-05-03T00:50:59.030Z,100461
2017-05-03T00:52:00.061Z,100457
2017-05-03T00:52:59.166Z,100462
2017-05-03T00:53:58.664Z,100462
2017-05-03T00:54:59.894Z,100462
2017-05-03T00:55:59.886Z,100462
2017-05-03T00:56:59.318Z,100463
2017-05-03T00:57:59.189Z,100461
2017-05-03T00:58:58.867Z,100462
2017-05-03T00:59:59.439Z,100463
2017-05-03T01:00:58.992Z,100465
2017-05-03T01:01:59.699Z,100461
2017-05-03T01:02:59.668Z,100465
2017-05-03T01:03:59.475Z,100459
2017-05-03T01:04:59.801Z,100462
2017-05-03T01:05:59.764Z,100465
2017-05-03T01:06:59.247Z,100462
2017-05-03T01:07:59.858Z,100452
2017-05-03T01:08:59.941Z,100462
2017-05-03T01:10:00.338Z,100458
2017-05-03T01:11:00.007Z,100462
2017-05-03T01:12:00.015Z,100460
2017-05-03T01:12:59.590Z,100463
2017-05-03T01:14:00.120Z,100455
2017-05-03T01:15:00.746Z,100465
2017-05-03T01:16:00.810Z,100471
2017-05-03T01:16:59.799Z,100463
2017-05-03T01:18:00.469Z,100466
2017-05-03T01:19:00.493Z,100465
2017-05-03T01:19:59.945Z,100466
2017-05-03T01:21:00.595Z,100461
2017-05-03T01:22:01.591Z,100460
2017-05-03T01:23:01.443Z,100461
2017-05-03T01:24:00.716Z,100460
2017-05-03T01:25:00.794Z,100458
2017-05-03T01:26:00.695Z,100463
2017-05-03T01:27:00.351Z,100463
2017-05-03T01:28:00.521Z,100468
2017-05-03T01:29:00.361Z,100461
2017-05-03T01:30:00.420Z,100465
2017-05-03T01:31:00.503Z,100464
2017-05-03T01:32:01.094Z,100463
2017-05-03T01:33:01.088Z,100462
2017-05-03T01:34:00.903Z,100462
2017-05-03T01:35:01.207Z,100463
2017-05-03T01:36:00.780Z,100467
2017-05-03T01:37:01.346Z,100466
2017-05-03T01:38:00.814Z,100458
2017-05-03T01:39:00.912Z,100471
2017-05-03T01:40:01.226Z,100467
2017-05-03T01:41:01.487Z,100473
2017-05-03T01:42:01.518Z,100466
2017-05-03T01:43:01.652Z,100465
2017-05-03T01:44:01.090Z,100468
2017-05-03T01:45:01.635Z,100469
2017-05-03T01:46:01.465Z,100473
2017-05-03T01:47:01.164Z,100474
2017-05-03T01:48:01.816Z,100472
2017-05-03T01:49:01.885Z,100472
2017-05-03T01:50:01.432Z,100475
2017-05-03T01:51:01.465Z,100477
2017-05-03T01:52:02.309Z,100477
2017-05-03T01:53:01.600Z,100476
2017-05-03T01:54:01.691Z,100471
2017-05-03T01:55:02.248Z,100475
2017-05-03T01:56:02.311Z,100468
2017-05-03T01:57:02.161Z,100476
2017-05-03T01:58:02.444Z,100481
2017-05-03T01:59:01.969Z,100477
2017-05-03T02:00:02.506Z,100470
2017-05-03T02:01:02.013Z,100476
2017-05-03T02:02:02.638Z,100478
2017-05-03T02:03:02.942Z,100476
2017-05-03T02:04:02.180Z,100473
2017-05-03T02:05:02.775Z,100477
2017-05-03T02:06:02.877Z,100468
2017-05-03T02:07:02.340Z,100478
2017-05-03T02:08:02.970Z,100474
2017-05-03T02:09:02.702Z,100478
2017-05-03T02:10:02.476Z,100479
2017-05-03T02:11:03.250Z,100470
2017-05-03T02:12:02.561Z,100479
2017-05-03T02:13:02.610Z,100478
2017-05-03T02:14:03.231Z,100479
2017-05-03T02:15:02.931Z,100478
2017-05-03T02:16:03.219Z,100476
2017-05-03T02:17:02.762Z,100467
2017-05-03T02:18:02.897Z,100471
2017-05-03T02:19:02.960Z,100469
2017-05-03T02:20:03.471Z,100473
2017-05-03T02:21:03.824Z,100472
2017-05-03T02:22:03.566Z,100475
2017-05-03T02:23:03.124Z,100471
2017-05-03T02:24:03.186Z,100475
2017-05-03T02:25:03.731Z,100473
2017-05-03T02:26:03.972Z,100471
2017-05-03T02:27:04.279Z,100468
2017-05-03T02:28:03.509Z,100465
2017-05-03T02:29:03.521Z,100458
2017-05-03T02:30:04.198Z,100464
2017-05-03T02:31:03.590Z,100463
2017-05-03T02:32:03.746Z,100471
2017-05-03T02:33:05.178Z,100466
2017-05-03T02:34:04.854Z,100467
2017-05-03T02:35:04.425Z,100462
2017-05-03T02:36:05.119Z,100470
2017-05-03T02:37:04.038Z,100471
2017-05-03T02:38:04.101Z,100467
2017-05-03T02:39:05.074Z,100460
2017-05-03T02:40:04.648Z,100470
2017-05-03T02:41:06.641Z,100467
2017-05-03T02:42:06.231Z,100462
2017-05-03T02:43:05.431Z,100471
2017-05-03T02:44:04.929Z,100469
2017-05-03T02:45:05.238Z,100474
2017-05-03T02:46:04.399Z,100474
2017-05-03T02:47:04.444Z,100473
2017-05-03T02:48:05.069Z,100476
2017-05-03T02:49:05.065Z,100480
2017-05-03T02:50:05.100Z,100478
2017-05-03T02:51:05.514Z,100478
2017-05-03T02:52:05.430Z,100479
2017-05-03T02:53:05.746Z,100475
2017-05-03T02:54:04.909Z,100477
2017-05-03T02:55:05.567Z,100476
2017-05-03T02:56:05.481Z,100472
2017-05-03T02:57:07.499Z,100469
2017-05-03T02:58:05.583Z,100473
2017-05-03T02:59:06.252Z,100474
2017-05-03T03:00:05.099Z,100471
2017-05-03T03:01:07.148Z,100475
2017-05-03T03:02:05.721Z,100476
2017-05-03T03:03:06.820Z,100474
2017-05-03T03:04:05.284Z,100473
2017-05-03T03:05:06.143Z,100475
2017-05-03T03:06:05.751Z,100479
2017-05-03T03:07:05.936Z,100479
2017-05-03T03:08:06.675Z,100474
2017-05-03T03:09:08.172Z,100471
2017-05-03T03:10:05.992Z,100473
2017-05-03T03:11:06.069Z,100477
2017-05-03T03:12:05.706Z,100473
2017-05-03T03:13:06.212Z,100474
2017-05-03T03:14:07.573Z,100476
2017-05-03T03:15:05.951Z,100475
2017-05-03T03:16:05.712Z,100476
2017-05-03T03:17:05.791Z,100471
2017-05-03T03:18:05.916Z,100479
2017-05-03T03:19:06.495Z,100473
2017-05-03T03:20:07.166Z,100477
2017-05-03T03:21:06.209Z,100471
2017-05-03T03:22:07.338Z,100473
2017-05-03T03:23:07.428Z,100477
2017-05-03T03:24:07.339Z,100480
2017-05-03T03:25:06.285Z,100470
2017-05-03T03:26:07.053Z,100478
2017-05-03T03:27:07.285Z,100479
2017-05-03T03:28:06.456Z,100483
2017-05-03T03:29:07.585Z,100471
2017-05-03T03:30:07.669Z,100482
2017-05-03T03:31:06.454Z,100479
2017-05-03T03:32:07.090Z,100484
2017-05-03T03:33:07.449Z,100487
2017-05-03T03:34:07.640Z,100484
2017-05-03T03:35:07.096Z,100481
2017-05-03T03:36:08.425Z,100480
2017-05-03T03:37:07.801Z,100481
2017-05-03T03:38:06.713Z,100482
2017-05-03T03:39:07.177Z,100472
2017-05-03T03:40:07.491Z,100479
2017-05-03T03:41:07.548Z,100478
2017-05-03T03:42:07.810Z,100479
2017-05-03T03:43:07.931Z,100481
2017-05-03T03:44:07.062Z,100478
2017-05-03T03:45:07.459Z,100483
2017-05-03T03:46:07.162Z,100479
2017-05-03T03:47:07.805Z,100486
2017-05-03T03:48:07.833Z,100487
2017-05-03T03:49:07.345Z,100487
2017-05-03T03:50:08.016Z,100486
2017-05-03T03:51:07.680Z,100486
2017-05-03T03:52:08.029Z,100491
2017-05-03T03:53:08.128Z,100486
2017-05-03T03:54:08.088Z,100489
2017-05-03T03:55:07.680Z,100489
2017-05-03T03:56:08.204Z,100486
2017-05-03T03:57:08.080Z,100489
2017-05-03T03:58:08.365Z,100484
2017-05-03T03:59:08.372Z,100491
2017-05-03T04:00:07.827Z,100483
2017-05-03T04:01:07.914Z,100494
2017-05-03T04:02:08.507Z,100494
2017-05-03T04:03:08.329Z,100495
2017-05-03T04:04:08.134Z,100496
2017-05-03T04:05:08.737Z,100496
2017-05-03T04:06:08.775Z,100489
2017-05-03T04:07:08.830Z,100502
2017-05-03T04:08:08.341Z,100501
2017-05-03T04:09:08.771Z,100506
2017-05-03T04:10:08.540Z,100503
2017-05-03T04:11:09.091Z,100505
2017-05-03T04:12:09.124Z,100506
2017-05-03T04:13:08.684Z,100500
2017-05-03T04:14:09.278Z,100509
2017-05-03T04:15:09.035Z,100501
2017-05-03T04:16:08.817Z,100511
2017-05-03T04:17:09.395Z,100503
2017-05-03T04:18:08.901Z,100511
2017-05-03T04:19:08.939Z,100515
2017-05-03T04:20:09.591Z,100514
2017-05-03T04:21:09.926Z,100516
2017-05-03T04:22:09.673Z,100519
2017-05-03T04:23:09.183Z,100516
2017-05-03T04:24:09.323Z,100515
2017-05-03T04:25:09.339Z,100524
2017-05-03T04:26:10.635Z,100524
2017-05-03T04:27:09.823Z,100524
2017-05-03T04:28:09.553Z,100523
2017-05-03T04:29:10.116Z,100526
2017-05-03T04:30:10.109Z,100521
2017-05-03T04:31:09.604Z,100523
2017-05-03T04:32:10.195Z,100524
2017-05-03T04:33:09.943Z,100524
2017-05-03T04:34:10.290Z,100523
2017-05-03T04:35:09.865Z,100525
2017-05-03T04:36:09.925Z,100523
2017-05-03T04:37:10.545Z,100523
2017-05-03T04:38:10.068Z,100525
2017-05-03T04:39:10.458Z,100528
2017-05-03T04:40:10.716Z,100531
2017-05-03T04:41:10.786Z,100529
2017-05-03T04:42:10.827Z,100529
2017-05-03T04:43:10.879Z,100528
2017-05-03T04:44:10.451Z,100531
2017-05-03T04:45:11.283Z,100532
2017-05-03T04:46:11.081Z,100527
2017-05-03T04:47:10.560Z,100532
2017-05-03T04:48:10.525Z,100527
2017-05-03T04:49:10.556Z,100537
2017-05-03T04:50:10.636Z,100535
2017-05-03T04:51:10.992Z,100536
2017-05-03T04:52:10.767Z,100535
2017-05-03T04:53:11.310Z,100539
2017-05-03T04:54:11.057Z,100542
2017-05-03T04:55:10.985Z,100540
2017-05-03T04:56:12.082Z,100539
2017-05-03T04:57:11.619Z,100541
2017-05-03T04:58:11.529Z,100542
2017-05-03T04:59:11.081Z,100541
2017-05-03T05:00:11.660Z,100538
2017-05-03T05:01:11.170Z,100543
2017-05-03T05:02:11.131Z,100546
2017-05-03T05:03:11.714Z,100543
2017-05-03T05:04:11.817Z,100547
2017-05-03T05:05:11.312Z,100549
2017-05-03T05:06:11.389Z,100553
2017-05-03T05:07:11.999Z,100550
2017-05-03T05:08:12.559Z,100553
2017-05-03T05:09:12.045Z,100547
2017-05-03T05:10:12.157Z,100546
2017-05-03T05:11:11.595Z,100555
2017-05-03T05:12:12.729Z,100554
2017-05-03T05:13:13.568Z,100558
2017-05-03T05:14:12.600Z,100550
2017-05-03T05:15:11.713Z,100557
2017-05-03T05:16:11.670Z,100559
2017-05-03T05:17:12.247Z,100559
2017-05-03T05:18:12.298Z,100552
2017-05-03T05:19:11.838Z,100557
2017-05-03T05:20:12.487Z,100562
2017-05-03T05:21:14.386Z,100564
2017-05-03T05:22:12.523Z,100563
2017-05-03T05:23:13.142Z,100562
2017-05-03T05:24:12.605Z,100556
2017-05-03T05:25:12.595Z,100564
2017-05-03T05:26:12.733Z,100567
2017-05-03T05:27:12.218Z,100566
2017-05-03T05:28:13.334Z,100568
2017-05-03T05:29:12.808Z,100559
2017-05-03T05:30:12.938Z,100562
2017-05-03T05:31:12.401Z,100571
2017-05-03T05:32:13.526Z,100575
2017-05-03T05:33:12.534Z,100572
2017-05-03T05:34:12.598Z,100577
2017-05-03T05:35:13.193Z,100577
2017-05-03T05:36:12.702Z,100580
2017-05-03T05:37:15.366Z,100584
2017-05-03T05:38:12.834Z,100583
2017-05-03T05:39:13.405Z,100588
2017-05-03T05:40:13.465Z,100585
2017-05-03T05:41:13.580Z,100581
2017-05-03T05:42:12.981Z,100589
2017-05-03T05:43:16.823Z,100583
2017-05-03T05:44:13.600Z,100586
2017-05-03T05:45:14.330Z,100589
2017-05-03T05:46:13.666Z,100586
2017-05-03T05:47:13.221Z,100592
2017-05-03T05:48:13.823Z,100597
2017-05-03T05:49:13.853Z,100598
2017-05-03T05:50:13.948Z,100607
2017-05-03T05:51:13.980Z,100597
2017-05-03T05:52:13.976Z,100606
2017-05-03T05:53:14.053Z,100608
2017-05-03T05:54:13.630Z,100601
2017-05-03T05:55:13.623Z,100609
2017-05-03T05:56:14.280Z,100611
2017-05-03T05:57:14.365Z,100611
2017-05-03T05:58:13.885Z,100608
2017-05-03T05:59:14.511Z,100612
2017-05-03T06:00:14.597Z,100612
2017-05-03T06:01:14.050Z,100611
2017-05-03T06:02:14.739Z,100605
2017-05-03T06:03:14.692Z,100613
2017-05-03T06:04:14.250Z,100613
2017-05-03T06:05:14.794Z,100608
2017-05-03T06:06:14.296Z,100610
2017-05-03T06:07:14.449Z,100609
2017-05-03T06:08:14.472Z,100608
2017-05-03T06:09:14.514Z,100611
2017-05-03T06:10:16.036Z,100611
2017-05-03T06:11:17.195Z,100613
2017-05-03T06:12:14.636Z,100614
2017-05-03T06:13:17.748Z,100620
2017-05-03T06:14:15.293Z,100617
2017-05-03T06:15:15.916Z,100618
2017-05-03T06:16:15.479Z,100618
2017-05-03T06:17:14.835Z,100620
2017-05-03T06:18:14.936Z,100614
2017-05-03T06:19:17.644Z,100623
2017-05-03T06:20:16.377Z,100620
2017-05-03T06:21:15.151Z,100621
2017-05-03T06:22:16.673Z,100620
2017-05-03T06:23:15.757Z,100625
2017-05-03T06:24:15.236Z,100625
2017-05-03T06:25:17.693Z,100629
2017-05-03T06:26:15.962Z,100634
2017-05-03T06:27:16.051Z,100634
2017-05-03T06:28:15.536Z,100638
2017-05-03T06:29:17.225Z,100637
2017-05-03T06:30:16.168Z,100638
2017-05-03T06:31:16.870Z,100637
2017-05-03T06:32:15.814Z,100640
2017-05-03T06:33:16.567Z,100638
2017-05-03T06:34:16.972Z,100640
2017-05-03T06:35:17.115Z,100637
2017-05-03T06:36:16.565Z,100639
2017-05-03T06:37:17.378Z,100638
2017-05-03T06:38:17.762Z,100638
2017-05-03T06:39:17.344Z,100635
2017-05-03T06:40:17.362Z,100636
2017-05-03T06:41:17.406Z,100637
2017-05-03T06:42:17.551Z,100637
2017-05-03T06:43:16.821Z,100639
2017-05-03T06:44:16.981Z,100641
2017-05-03T06:45:17.137Z,100644
2017-05-03T06:46:17.592Z,100641
2017-05-03T06:47:17.064Z,100644
2017-05-03T06:48:17.131Z,100640
2017-05-03T06:50:16.720Z,100644
2017-05-03T06:51:17.977Z,100640
2017-05-03T06:52:17.552Z,100634
2017-05-03T06:53:17.989Z,100632
2017-05-03T06:54:17.470Z,100642
2017-05-03T06:55:18.152Z,100644
2017-05-03T06:57:17.147Z,100643
2017-05-03T06:58:17.889Z,100645
2017-05-03T06:59:17.875Z,100645
2017-05-03T07:00:17.291Z,100643
2017-05-03T07:01:19.996Z,100645
2017-05-03T07:02:18.899Z,100648
2017-05-03T07:03:18.762Z,100648
2017-05-03T07:04:19.134Z,100649
2017-05-03T07:05:19.765Z,100648
2017-05-03T07:06:17.657Z,100649
2017-05-03T07:07:18.939Z,100644
2017-05-03T07:08:19.255Z,100641
2017-05-03T07:09:19.418Z,100642
2017-05-03T07:10:19.687Z,100641
2017-05-03T07:11:19.939Z,100640
2017-05-03T07:12:18.031Z,100641
2017-05-03T07:13:18.639Z,100641
2017-05-03T07:14:20.247Z,100636
2017-05-03T07:15:20.265Z,100639
2017-05-03T07:16:20.338Z,100641
2017-05-03T07:17:22.566Z,100640
2017-05-03T07:18:19.044Z,100642
2017-05-03T07:19:20.229Z,100638
2017-05-03T07:20:19.331Z,100647
2017-05-03T07:21:20.410Z,100647
2017-05-03T07:22:19.400Z,100646
2017-05-03T07:23:19.672Z,100645
2017-05-03T07:24:21.964Z,100648
2017-05-03T07:25:25.345Z,100648
2017-05-03T07:26:19.449Z,100651
2017-05-03T07:27:18.719Z,100652
2017-05-03T07:28:20.645Z,100645
2017-05-03T07:29:19.399Z,100650
2017-05-03T07:30:19.358Z,100646
2017-05-03T07:31:18.842Z,100651
2017-05-03T07:32:19.814Z,100649
2017-05-03T07:33:18.901Z,100645
2017-05-03T07:34:21.554Z,100637
2017-05-03T07:35:20.227Z,100646
2017-05-03T07:36:20.451Z,100644
2017-05-03T07:37:19.225Z,100645
2017-05-03T07:38:19.553Z,100644
2017-05-03T07:39:19.959Z,100647
2017-05-03T07:40:21.885Z,100639
2017-05-03T07:41:21.834Z,100647
2017-05-03T07:42:22.214Z,100648
2017-05-03T07:43:20.542Z,100645
2017-05-03T07:44:21.448Z,100645
2017-05-03T07:45:19.431Z,100648
2017-05-03T07:46:19.956Z,100650
2017-05-03T07:47:19.444Z,100655
2017-05-03T07:48:20.744Z,100658
2017-05-03T07:49:20.166Z,100658
2017-05-03T07:50:20.694Z,100657
2017-05-03T07:51:20.957Z,100654
2017-05-03T07:52:20.400Z,100652
2017-05-03T07:53:21.774Z,100662
2017-05-03T07:54:20.512Z,100664
2017-05-03T07:55:20.607Z,100661
2017-05-03T07:56:27.258Z,100669
2017-05-03T07:57:20.208Z,100667
2017-05-03T07:58:20.242Z,100673
2017-05-03T07:59:21.676Z,100673
2017-05-03T08:00:20.368Z,100677
2017-05-03T08:01:21.169Z,100678
2017-05-03T08:02:20.711Z,100678
2017-05-03T08:03:21.049Z,100673
2017-05-03T08:04:21.651Z,100676
2017-05-03T08:05:22.778Z,100682
2017-05-03T08:06:23.076Z,100682
2017-05-03T08:07:21.875Z,100688
2017-05-03T08:08:23.520Z,100686
2017-05-03T08:09:24.903Z,100687
2017-05-03T08:10:24.608Z,100691
2017-05-03T08:11:22.481Z,100688
2017-05-03T08:12:24.974Z,100687
2017-05-03T08:13:25.062Z,100691
2017-05-03T08:14:22.216Z,100692
2017-05-03T08:15:22.409Z,100697
2017-05-03T08:16:21.390Z,100690
2017-05-03T08:17:22.412Z,100697
2017-05-03T08:18:22.371Z,100692
2017-05-03T08:19:24.775Z,100684
2017-05-03T08:20:22.916Z,100689
2017-05-03T08:21:22.251Z,100691
2017-05-03T08:22:24.509Z,100693
2017-05-03T08:23:22.863Z,100693
2017-05-03T08:24:21.667Z,100695
2017-05-03T08:25:25.366Z,100696
2017-05-03T08:26:25.124Z,100695
2017-05-03T08:27:21.760Z,100697
2017-05-03T08:28:23.480Z,100697
2017-05-03T08:29:23.101Z,100698
2017-05-03T08:30:21.866Z,100698
2017-05-03T08:31:21.943Z,100702
2017-05-03T08:32:24.781Z,100703
2017-05-03T08:33:23.349Z,100704
2017-05-03T08:34:23.813Z,100690
2017-05-03T08:35:22.646Z,100690
2017-05-03T08:36:23.574Z,100694
2017-05-03T08:37:28.073Z,100694
2017-05-03T08:38:30.107Z,100701
2017-05-03T08:39:25.300Z,100707
2017-05-03T08:40:29.324Z,100703
2017-05-03T08:41:23.082Z,100697
2017-05-03T08:42:27.027Z,100698
2017-05-03T08:43:24.509Z,100700
2017-05-03T08:44:24.192Z,100706
2017-05-03T08:45:23.217Z,100700
2017-05-03T08:46:24.005Z,100708
2017-05-03T08:47:23.298Z,100709
2017-05-03T08:48:24.033Z,100704
2017-05-03T08:49:24.016Z,100707
2017-05-03T08:50:25.773Z,100700
2017-05-03T08:51:23.684Z,100706
2017-05-03T08:52:24.501Z,100709
2017-05-03T08:53:24.284Z,100707
2017-05-03T08:54:25.468Z,100707
2017-05-03T08:55:24.604Z,100709
2017-05-03T08:56:25.018Z,100710
2017-05-03T08:57:24.809Z,100711
2017-05-03T08:58:26.987Z,100711
2017-05-03T08:59:24.612Z,100706
2017-05-03T09:00:25.861Z,100702
2017-05-03T09:01:25.956Z,100709
2017-05-03T09:02:24.502Z,100699
2017-05-03T09:03:24.993Z,100707
2017-05-03T09:04:24.891Z,100709
2017-05-03T09:05:24.887Z,100710
2017-05-03T09:06:27.294Z,100711
2017-05-03T09:07:26.273Z,100711
2017-05-03T09:08:25.453Z,100713
2017-05-03T09:09:25.178Z,100714
2017-05-03T09:10:27.900Z,100714
2017-05-03T09:11:25.667Z,100714
2017-05-03T09:12:24.006Z,100706
2017-05-03T09:13:27.905Z,100720
2017-05-03T09:14:24.314Z,100717
2017-05-03T09:15:31.340Z,100721
2017-05-03T09:16:24.630Z,100722
2017-05-03T09:17:24.947Z,100719
2017-05-03T09:18:29.276Z,100717
2017-05-03T09:19:30.483Z,100715
2017-05-03T09:20:27.404Z,100719
2017-05-03T09:37:27.821Z,100737
2017-05-03T09:41:33.305Z,100742
2017-05-03T09:42:26.268Z,100741
2017-05-03T09:43:28.405Z,100743
2017-05-03T09:44:28.705Z,100746
2017-05-03T09:45:32.006Z,100752
2017-05-03T09:46:30.081Z,100749
2017-05-03T09:47:26.161Z,100753
2017-05-03T09:48:26.114Z,100754
2017-05-03T09:49:28.496Z,100747
2017-05-03T09:50:26.888Z,100755
2017-05-03T09:51:26.260Z,100752
2017-05-03T09:52:27.761Z,100748
2017-05-03T09:53:26.599Z,100753
2017-05-03T09:54:33.454Z,100753
2017-05-03T09:55:28.418Z,100755
2017-05-03T09:56:28.210Z,100756
2017-05-03T09:57:29.302Z,100753
2017-05-03T10:01:33.084Z,100757
2017-05-03T10:02:31.211Z,100755
2017-05-03T10:03:31.782Z,100762
2017-05-03T10:05:28.177Z,100764
2017-05-03T10:06:29.201Z,100763
2017-05-03T10:07:32.030Z,100757
2017-05-03T10:08:29.587Z,100762
2017-05-03T10:09:26.851Z,100761
2017-05-03T10:10:29.960Z,100752
2017-05-03T10:11:30.636Z,100762
2017-05-03T10:12:33.032Z,100762
2017-05-03T10:13:27.523Z,100758
2017-05-03T10:14:27.066Z,100760
2017-05-03T10:15:27.725Z,100763
2017-05-03T10:17:29.135Z,100763
2017-05-03T10:18:27.827Z,100760
2017-05-03T10:19:27.338Z,100762
2017-05-03T10:20:27.442Z,100765
2017-05-03T10:22:30.594Z,100765
2017-05-03T10:23:28.839Z,100767
2017-05-03T10:24:31.674Z,100770
2017-05-03T10:25:29.416Z,100763
2017-05-03T10:26:30.078Z,100769
2017-05-03T10:27:31.827Z,100769
2017-05-03T10:28:33.757Z,100764
2017-05-03T10:29:29.503Z,100768
2017-05-03T10:30:29.186Z,100769
2017-05-03T10:31:29.884Z,100762
2017-05-03T10:32:28.766Z,100775
2017-05-03T10:33:28.706Z,100771
2017-05-03T10:34:29.774Z,100767
2017-05-03T10:35:29.977Z,100766
2017-05-03T10:36:30.328Z,100768
2017-05-03T10:37:31.451Z,100763
2017-05-03T10:38:31.759Z,100763
2017-05-03T10:39:29.097Z,100762
2017-05-03T10:40:29.428Z,100761
2017-05-03T10:41:28.991Z,100762
2017-05-03T10:42:28.510Z,100756
2017-05-03T10:43:30.976Z,100755
2017-05-03T10:44:29.176Z,100757
2017-05-03T10:45:29.199Z,100757
2017-05-03T10:46:30.504Z,100760
2017-05-03T10:47:30.200Z,100757
2017-05-03T10:48:30.037Z,100759
2017-05-03T10:49:29.753Z,100754
2017-05-03T10:50:29.660Z,100751
2017-05-03T10:51:29.336Z,100760
2017-05-03T10:52:31.046Z,100757
2017-05-03T10:53:29.947Z,100755
2017-05-03T10:54:29.463Z,100747
2017-05-03T10:55:29.707Z,100750
2017-05-03T10:56:29.188Z,100751
2017-05-03T10:57:31.191Z,100754
2017-05-03T10:58:30.471Z,100754
2017-05-03T10:59:29.774Z,100754
2017-05-03T11:00:29.793Z,100745
2017-05-03T11:01:29.876Z,100750
2017-05-03T11:02:29.451Z,100756
2017-05-03T11:03:30.730Z,100756
2017-05-03T11:04:29.603Z,100754
2017-05-03T11:05:30.313Z,100759
2017-05-03T11:06:30.158Z,100753
2017-05-03T11:07:30.193Z,100758
2017-05-03T11:08:30.990Z,100755
2017-05-03T11:09:30.262Z,100752
2017-05-03T11:10:30.325Z,100750
2017-05-03T11:11:32.258Z,100754
2017-05-03T11:12:30.427Z,100746
2017-05-03T11:13:29.928Z,100755
2017-05-03T11:14:31.774Z,100756
2017-05-03T11:15:30.728Z,100750
2017-05-03T11:16:33.581Z,100762
2017-05-03T11:17:31.878Z,100757
2017-05-03T11:18:31.331Z,100755
2017-05-03T11:19:31.874Z,100754
2017-05-03T11:20:31.584Z,100754
2017-05-03T11:21:30.849Z,100748
2017-05-03T11:22:30.460Z,100753
2017-05-03T11:23:30.979Z,100753
2017-05-03T11:24:30.564Z,100753
2017-05-03T11:25:31.075Z,100752
2017-05-03T11:26:31.138Z,100755
2017-05-03T11:27:31.297Z,100754
2017-05-03T11:28:33.789Z,100752
2017-05-03T11:29:31.282Z,100729
2017-05-03T11:30:31.301Z,100754
2017-05-03T11:31:32.127Z,100750
2017-05-03T11:32:32.195Z,100755
2017-05-03T11:33:32.091Z,100753
2017-05-03T11:34:31.606Z,100760
2017-05-03T11:35:32.848Z,100757
2017-05-03T11:36:32.347Z,100757
2017-05-03T11:37:31.683Z,100749
2017-05-03T11:38:31.874Z,100757
2017-05-03T11:39:33.463Z,100747
2017-05-03T11:41:32.308Z,100748
2017-05-03T11:42:31.330Z,100753
2017-05-03T11:43:31.950Z,100752
2017-05-03T11:44:32.128Z,100750
2017-05-03T11:45:31.904Z,100748
2017-05-03T11:46:32.967Z,100744
2017-05-03T11:47:32.630Z,100744
2017-05-03T11:48:32.726Z,100742
2017-05-03T11:49:32.824Z,100747
2017-05-03T11:50:31.604Z,100742
2017-05-03T11:51:32.215Z,100743
2017-05-03T11:52:31.717Z,100745
2017-05-03T11:53:32.547Z,100747
2017-05-03T11:54:31.847Z,100751
2017-05-03T11:55:32.372Z,100749
2017-05-03T11:56:33.848Z,100746
2017-05-03T11:57:31.908Z,100746
2017-05-03T11:58:32.526Z,100746
2017-05-03T11:59:33.270Z,100748
2017-05-03T12:00:36.050Z,100744
2017-05-03T12:01:32.161Z,100743
2017-05-03T12:02:33.494Z,100740
2017-05-03T12:03:33.005Z,100742
2017-05-03T12:04:33.656Z,100741
2017-05-03T12:05:32.305Z,100740
2017-05-03T12:06:32.366Z,100735
2017-05-03T12:07:32.450Z,100737
2017-05-03T12:08:34.806Z,100740
2017-05-03T12:09:33.560Z,100741
2017-05-03T12:10:33.837Z,100739
2017-05-03T12:11:33.624Z,100741
2017-05-03T12:12:34.694Z,100737
2017-05-03T12:13:36.441Z,100742
2017-05-03T12:14:33.889Z,100742
2017-05-03T12:15:35.506Z,100738
2017-05-03T12:16:35.608Z,100732
2017-05-03T12:17:34.128Z,100725
2017-05-03T12:18:34.849Z,100734
2017-05-03T12:19:33.508Z,100732
2017-05-03T12:20:33.431Z,100732
2017-05-03T12:21:32.929Z,100732
2017-05-03T12:22:33.757Z,100733
2017-05-03T12:23:33.061Z,100738
2017-05-03T12:24:34.234Z,100731
2017-05-03T12:25:36.380Z,100736
2017-05-03T12:26:33.826Z,100733
2017-05-03T12:27:34.670Z,100735
2017-05-03T12:28:33.355Z,100736
2017-05-03T12:29:36.431Z,100734
2017-05-03T12:31:36.194Z,100736
2017-05-03T12:32:34.126Z,100733
2017-05-03T12:33:34.242Z,100734
2017-05-03T12:34:36.260Z,100731
2017-05-03T12:35:42.801Z,100731
2017-05-03T12:36:34.777Z,100731
2017-05-03T12:37:38.146Z,100733
2017-05-03T12:38:35.356Z,100728
2017-05-03T12:39:35.453Z,100728
2017-05-03T12:40:35.697Z,100725
2017-05-03T12:41:34.550Z,100728
2017-05-03T12:42:35.825Z,100726
2017-05-03T12:43:34.732Z,100722
2017-05-03T12:44:35.267Z,100719
2017-05-03T12:46:35.919Z,100720
2017-05-03T12:47:36.221Z,100726
2017-05-03T12:48:35.541Z,100720
2017-05-03T12:49:35.047Z,100725
2017-05-03T12:50:35.333Z,100723
2017-05-03T12:51:35.231Z,100729
2017-05-03T12:52:35.826Z,100731
2017-05-03T12:53:36.253Z,100722
2017-05-03T12:54:35.331Z,100720
2017-05-03T12:55:34.823Z,100726
2017-05-03T12:56:34.823Z,100726
2017-05-03T12:57:36.452Z,100722
2017-05-03T12:58:35.119Z,100726
2017-05-03T12:59:36.075Z,100722